sensor_id;sensor_type;location;lat;lon;timestamp;P1;durP1;ratioP1;P2;durP2;ratioP2
6306;SDS011;3186;54.062;9.962;2022-10-16T00:01:36;8.43;;;5.77;;
6306;SDS011;3186;54.062;9.962;2022-10-16T00:04:03;10.37;;;5.00;;
6306;SDS011;3186;54.062;9.962;2022-10-16T00:06:29;6.07;;;4.97;;
6306;SDS011;3186;54.062;9.962;2022-10-16T00:08:55;6.50;;;4.87;;
6306;SDS011;3186;54.062;9.962;2022-10-16T00:11:25;7.90;;;6.03;;
6306;SDS011;3186;54.062;9.962;2022-10-16T00:14:03;9.97;;;6.90;;
6306;SDS011;3186;54.062;9.962;2022-10-16T00:16:31;8.47;;;5.10;;
6306;SDS011;3186;54.062;9.962;2022-10-16T00:18:57;7.63;;;5.10;;
6306;SDS011;3186;54.062;9.962;2022-10-16T00:21:23;10.73;;;5.77;;
6306;SDS011;3186;54.062;9.962;2022-10-16T00:23:56;5.50;;;4.40;;
6306;SDS011;3186;54.062;9.962;2022-10-16T00:26:24;5.97;;;4.73;;
6306;SDS011;3186;54.062;9.962;2022-10-16T00:28:51;7.00;;;5.30;;
6306;SDS011;3186;54.062;9.962;2022-10-16T00:31:18;8.90;;;6.00;;
6306;SDS011;3186;54.062;9.962;2022-10-16T00:33:45;7.53;;;5.80;;
6306;SDS011;3186;54.062;9.962;2022-10-16T00:36:12;6.80;;;5.13;;
6306;SDS011;3186;54.062;9.962;2022-10-16T00:38:39;7.17;;;5.40;;
6306;SDS011;3186;54.062;9.962;2022-10-16T00:41:06;10.57;;;4.80;;
6306;SDS011;3186;54.062;9.962;2022-10-16T00:46:40;6.50;;;4.87;;
6306;SDS011;3186;54.062;9.962;2022-10-16T00:51:42;7.07;;;4.30;;
6306;SDS011;3186;54.062;9.962;2022-10-16T00:54:19;8.87;;;5.90;;
6306;SDS011;3186;54.062;9.962;2022-10-16T00:56:48;5.90;;;4.57;;
6306;SDS011;3186;54.062;9.962;2022-10-16T00:59:16;13.93;;;7.20;;
6306;SDS011;3186;54.062;9.962;2022-10-16T01:01:44;6.67;;;4.80;;
6306;SDS011;3186;54.062;9.962;2022-10-16T01:04:10;10.87;;;4.93;;
6306;SDS011;3186;54.062;9.962;2022-10-16T01:06:40;9.07;;;5.97;;
6306;SDS011;3186;54.062;9.962;2022-10-16T01:09:35;6.80;;;4.60;;
6306;SDS011;3186;54.062;9.962;2022-10-16T01:17:21;6.13;;;4.20;;
6306;SDS011;3186;54.062;9.962;2022-10-16T01:20:10;8.10;;;5.40;;
6306;SDS011;3186;54.062;9.962;2022-10-16T01:22:48;6.77;;;5.10;;
6306;SDS011;3186;54.062;9.962;2022-10-16T01:25:42;6.53;;;4.77;;
6306;SDS011;3186;54.062;9.962;2022-10-16T01:28:21;10.97;;;6.50;;
6306;SDS011;3186;54.062;9.962;2022-10-16T01:30:51;8.10;;;5.53;;
6306;SDS011;3186;54.062;9.962;2022-10-16T01:33:22;5.07;;;4.50;;
6306;SDS011;3186;54.062;9.962;2022-10-16T01:35:58;8.90;;;6.40;;
6306;SDS011;3186;54.062;9.962;2022-10-16T01:38:33;9.90;;;5.60;;
6306;SDS011;3186;54.062;9.962;2022-10-16T01:41:04;6.03;;;4.97;;
6306;SDS011;3186;54.062;9.962;2022-10-16T01:43:39;14.90;;;5.97;;
6306;SDS011;3186;54.062;9.962;2022-10-16T01:46:12;9.97;;;5.60;;
6306;SDS011;3186;54.062;9.962;2022-10-16T01:48:39;7.27;;;5.40;;
6306;SDS011;3186;54.062;9.962;2022-10-16T01:51:06;7.63;;;5.10;;
6306;SDS011;3186;54.062;9.962;2022-10-16T01:53:36;15.77;;;6.50;;
6306;SDS011;3186;54.062;9.962;2022-10-16T01:56:04;7.80;;;5.00;;
6306;SDS011;3186;54.062;9.962;2022-10-16T01:58:35;9.67;;;5.50;;
6306;SDS011;3186;54.062;9.962;2022-10-16T02:01:07;6.93;;;4.90;;
6306;SDS011;3186;54.062;9.962;2022-10-16T02:03:37;6.07;;;4.57;;
6306;SDS011;3186;54.062;9.962;2022-10-16T02:06:06;6.97;;;5.07;;
6306;SDS011;3186;54.062;9.962;2022-10-16T02:08:32;14.13;;;6.13;;
6306;SDS011;3186;54.062;9.962;2022-10-16T02:10:59;8.20;;;5.60;;
6306;SDS011;3186;54.062;9.962;2022-10-16T02:16:04;7.90;;;5.20;;
6306;SDS011;3186;54.062;9.962;2022-10-16T02:18:30;6.57;;;5.13;;
6306;SDS011;3186;54.062;9.962;2022-10-16T02:21:04;8.47;;;5.37;;
6306;SDS011;3186;54.062;9.962;2022-10-16T02:29:07;8.10;;;4.33;;
6306;SDS011;3186;54.062;9.962;2022-10-16T02:31:38;8.27;;;4.80;;
6306;SDS011;3186;54.062;9.962;2022-10-16T02:34:07;5.87;;;4.80;;
6306;SDS011;3186;54.062;9.962;2022-10-16T02:36:37;9.80;;;4.10;;
6306;SDS011;3186;54.062;9.962;2022-10-16T02:39:04;6.13;;;3.93;;
6306;SDS011;3186;54.062;9.962;2022-10-16T02:41:31;5.87;;;3.90;;
6306;SDS011;3186;54.062;9.962;2022-10-16T02:43:58;7.97;;;4.10;;
6306;SDS011;3186;54.062;9.962;2022-10-16T02:46:23;7.50;;;3.60;;
6306;SDS011;3186;54.062;9.962;2022-10-16T02:48:49;7.93;;;3.60;;
6306;SDS011;3186;54.062;9.962;2022-10-16T02:51:15;9.20;;;3.83;;
6306;SDS011;3186;54.062;9.962;2022-10-16T02:53:41;4.83;;;3.40;;
6306;SDS011;3186;54.062;9.962;2022-10-16T02:56:06;5.40;;;3.60;;
6306;SDS011;3186;54.062;9.962;2022-10-16T02:58:32;9.43;;;3.40;;
6306;SDS011;3186;54.062;9.962;2022-10-16T03:00:59;4.97;;;2.80;;
6306;SDS011;3186;54.062;9.962;2022-10-16T03:03:25;3.60;;;2.90;;
6306;SDS011;3186;54.062;9.962;2022-10-16T03:05:50;7.23;;;3.60;;
6306;SDS011;3186;54.062;9.962;2022-10-16T03:08:16;3.53;;;3.10;;
6306;SDS011;3186;54.062;9.962;2022-10-16T03:10:42;5.87;;;2.70;;
6306;SDS011;3186;54.062;9.962;2022-10-16T03:13:08;6.73;;;2.83;;
6306;SDS011;3186;54.062;9.962;2022-10-16T03:15:34;5.93;;;2.77;;
6306;SDS011;3186;54.062;9.962;2022-10-16T03:18:00;8.50;;;3.30;;
6306;SDS011;3186;54.062;9.962;2022-10-16T03:20:25;5.97;;;2.83;;
6306;SDS011;3186;54.062;9.962;2022-10-16T03:22:51;3.73;;;2.07;;
6306;SDS011;3186;54.062;9.962;2022-10-16T03:25:17;3.87;;;2.37;;
6306;SDS011;3186;54.062;9.962;2022-10-16T03:27:43;2.83;;;2.50;;
6306;SDS011;3186;54.062;9.962;2022-10-16T03:30:09;2.20;;;2.00;;
6306;SDS011;3186;54.062;9.962;2022-10-16T03:32:35;2.93;;;2.20;;
6306;SDS011;3186;54.062;9.962;2022-10-16T03:35:01;6.63;;;2.23;;
6306;SDS011;3186;54.062;9.962;2022-10-16T03:37:27;4.40;;;2.07;;
6306;SDS011;3186;54.062;9.962;2022-10-16T03:39:53;5.60;;;2.60;;
6306;SDS011;3186;54.062;9.962;2022-10-16T03:42:19;5.57;;;2.30;;
6306;SDS011;3186;54.062;9.962;2022-10-16T03:44:45;5.00;;;2.20;;
6306;SDS011;3186;54.062;9.962;2022-10-16T03:47:10;3.10;;;1.90;;
6306;SDS011;3186;54.062;9.962;2022-10-16T03:49:36;4.37;;;2.30;;
6306;SDS011;3186;54.062;9.962;2022-10-16T03:52:02;3.20;;;2.23;;
6306;SDS011;3186;54.062;9.962;2022-10-16T03:54:28;5.13;;;2.17;;
6306;SDS011;3186;54.062;9.962;2022-10-16T03:56:54;6.57;;;2.00;;
6306;SDS011;3186;54.062;9.962;2022-10-16T03:59:19;4.23;;;2.20;;
6306;SDS011;3186;54.062;9.962;2022-10-16T04:01:45;5.50;;;2.10;;
6306;SDS011;3186;54.062;9.962;2022-10-16T04:04:11;3.33;;;2.10;;
6306;SDS011;3186;54.062;9.962;2022-10-16T04:06:37;4.40;;;2.00;;
6306;SDS011;3186;54.062;9.962;2022-10-16T04:09:03;5.63;;;1.93;;
6306;SDS011;3186;54.062;9.962;2022-10-16T04:11:29;5.00;;;1.80;;
6306;SDS011;3186;54.062;9.962;2022-10-16T04:13:54;3.57;;;2.00;;
6306;SDS011;3186;54.062;9.962;2022-10-16T04:16:21;6.67;;;2.40;;
6306;SDS011;3186;54.062;9.962;2022-10-16T04:18:47;3.97;;;1.87;;
6306;SDS011;3186;54.062;9.962;2022-10-16T04:21:12;3.40;;;1.70;;
6306;SDS011;3186;54.062;9.962;2022-10-16T04:23:38;5.73;;;2.03;;
6306;SDS011;3186;54.062;9.962;2022-10-16T04:26:04;8.60;;;2.37;;
6306;SDS011;3186;54.062;9.962;2022-10-16T04:28:30;2.37;;;1.80;;
6306;SDS011;3186;54.062;9.962;2022-10-16T04:30:56;4.37;;;1.97;;
6306;SDS011;3186;54.062;9.962;2022-10-16T04:33:22;5.57;;;2.30;;
6306;SDS011;3186;54.062;9.962;2022-10-16T04:35:48;5.97;;;2.23;;
6306;SDS011;3186;54.062;9.962;2022-10-16T04:38:20;6.10;;;1.93;;
6306;SDS011;3186;54.062;9.962;2022-10-16T04:40:46;5.00;;;2.10;;
6306;SDS011;3186;54.062;9.962;2022-10-16T04:43:12;5.33;;;2.07;;
6306;SDS011;3186;54.062;9.962;2022-10-16T04:45:38;3.30;;;1.70;;
6306;SDS011;3186;54.062;9.962;2022-10-16T04:48:04;4.17;;;1.93;;
6306;SDS011;3186;54.062;9.962;2022-10-16T04:50:29;5.57;;;2.20;;
6306;SDS011;3186;54.062;9.962;2022-10-16T04:53:13;4.57;;;1.87;;
6306;SDS011;3186;54.062;9.962;2022-10-16T04:55:40;5.10;;;2.00;;
6306;SDS011;3186;54.062;9.962;2022-10-16T04:58:07;4.10;;;1.67;;
6306;SDS011;3186;54.062;9.962;2022-10-16T05:00:33;3.33;;;1.60;;
6306;SDS011;3186;54.062;9.962;2022-10-16T05:02:59;3.83;;;2.00;;
6306;SDS011;3186;54.062;9.962;2022-10-16T05:05:26;5.47;;;1.73;;
6306;SDS011;3186;54.062;9.962;2022-10-16T05:07:52;3.67;;;1.80;;
6306;SDS011;3186;54.062;9.962;2022-10-16T05:10:18;3.73;;;1.57;;
6306;SDS011;3186;54.062;9.962;2022-10-16T05:12:45;3.33;;;1.60;;
6306;SDS011;3186;54.062;9.962;2022-10-16T05:15:11;4.33;;;1.70;;
6306;SDS011;3186;54.062;9.962;2022-10-16T05:17:37;3.37;;;1.80;;
6306;SDS011;3186;54.062;9.962;2022-10-16T05:20:03;3.20;;;1.47;;
6306;SDS011;3186;54.062;9.962;2022-10-16T05:22:29;3.93;;;1.90;;
6306;SDS011;3186;54.062;9.962;2022-10-16T05:24:55;3.53;;;1.77;;
6306;SDS011;3186;54.062;9.962;2022-10-16T05:27:21;5.20;;;2.00;;
6306;SDS011;3186;54.062;9.962;2022-10-16T05:29:48;4.83;;;1.67;;
6306;SDS011;3186;54.062;9.962;2022-10-16T05:32:17;3.03;;;1.30;;
6306;SDS011;3186;54.062;9.962;2022-10-16T05:34:44;3.67;;;1.40;;
6306;SDS011;3186;54.062;9.962;2022-10-16T05:37:10;2.77;;;1.43;;
6306;SDS011;3186;54.062;9.962;2022-10-16T05:39:37;4.17;;;1.50;;
6306;SDS011;3186;54.062;9.962;2022-10-16T05:42:04;1.87;;;1.47;;
6306;SDS011;3186;54.062;9.962;2022-10-16T05:44:30;2.47;;;1.27;;
6306;SDS011;3186;54.062;9.962;2022-10-16T05:46:56;2.83;;;1.37;;
6306;SDS011;3186;54.062;9.962;2022-10-16T05:49:22;2.07;;;1.57;;
6306;SDS011;3186;54.062;9.962;2022-10-16T05:51:48;4.83;;;1.60;;
6306;SDS011;3186;54.062;9.962;2022-10-16T05:54:14;4.50;;;1.80;;
6306;SDS011;3186;54.062;9.962;2022-10-16T05:56:40;3.57;;;1.50;;
6306;SDS011;3186;54.062;9.962;2022-10-16T05:59:06;3.80;;;1.70;;
6306;SDS011;3186;54.062;9.962;2022-10-16T06:01:32;2.40;;;1.40;;
6306;SDS011;3186;54.062;9.962;2022-10-16T06:03:58;2.73;;;1.30;;
6306;SDS011;3186;54.062;9.962;2022-10-16T06:06:25;1.50;;;1.30;;
6306;SDS011;3186;54.062;9.962;2022-10-16T06:08:52;3.97;;;1.30;;
6306;SDS011;3186;54.062;9.962;2022-10-16T06:11:26;4.67;;;1.57;;
6306;SDS011;3186;54.062;9.962;2022-10-16T06:13:54;2.17;;;1.70;;
6306;SDS011;3186;54.062;9.962;2022-10-16T06:16:22;2.97;;;1.40;;
6306;SDS011;3186;54.062;9.962;2022-10-16T06:18:50;1.67;;;1.37;;
6306;SDS011;3186;54.062;9.962;2022-10-16T06:21:22;15.37;;;6.23;;
6306;SDS011;3186;54.062;9.962;2022-10-16T06:23:50;14.17;;;7.17;;
6306;SDS011;3186;54.062;9.962;2022-10-16T06:26:17;19.00;;;12.60;;
6306;SDS011;3186;54.062;9.962;2022-10-16T06:28:44;9.20;;;3.90;;
6306;SDS011;3186;54.062;9.962;2022-10-16T06:31:11;6.97;;;3.97;;
6306;SDS011;3186;54.062;9.962;2022-10-16T06:33:37;4.07;;;2.63;;
6306;SDS011;3186;54.062;9.962;2022-10-16T06:36:05;9.67;;;3.83;;
6306;SDS011;3186;54.062;9.962;2022-10-16T06:38:34;7.97;;;5.77;;
6306;SDS011;3186;54.062;9.962;2022-10-16T06:41:00;7.27;;;5.07;;
6306;SDS011;3186;54.062;9.962;2022-10-16T06:43:26;7.60;;;4.00;;
6306;SDS011;3186;54.062;9.962;2022-10-16T06:45:56;8.70;;;4.93;;
6306;SDS011;3186;54.062;9.962;2022-10-16T06:48:23;12.43;;;5.77;;
6306;SDS011;3186;54.062;9.962;2022-10-16T06:53:28;7.20;;;3.97;;
6306;SDS011;3186;54.062;9.962;2022-10-16T06:55:56;6.90;;;4.63;;
6306;SDS011;3186;54.062;9.962;2022-10-16T06:58:22;5.70;;;3.40;;
6306;SDS011;3186;54.062;9.962;2022-10-16T07:00:48;7.90;;;3.23;;
6306;SDS011;3186;54.062;9.962;2022-10-16T07:03:14;6.40;;;2.90;;
6306;SDS011;3186;54.062;9.962;2022-10-16T07:05:41;7.93;;;2.10;;
6306;SDS011;3186;54.062;9.962;2022-10-16T07:08:07;5.53;;;2.50;;
6306;SDS011;3186;54.062;9.962;2022-10-16T07:10:34;5.10;;;2.60;;
6306;SDS011;3186;54.062;9.962;2022-10-16T07:13:01;6.00;;;2.60;;
6306;SDS011;3186;54.062;9.962;2022-10-16T07:15:27;6.20;;;2.53;;
6306;SDS011;3186;54.062;9.962;2022-10-16T07:17:53;5.53;;;2.80;;
6306;SDS011;3186;54.062;9.962;2022-10-16T07:20:19;7.07;;;2.87;;
6306;SDS011;3186;54.062;9.962;2022-10-16T07:22:45;4.43;;;2.60;;
6306;SDS011;3186;54.062;9.962;2022-10-16T07:25:11;4.87;;;2.50;;
6306;SDS011;3186;54.062;9.962;2022-10-16T07:27:37;6.00;;;2.37;;
6306;SDS011;3186;54.062;9.962;2022-10-16T07:30:03;6.20;;;2.63;;
6306;SDS011;3186;54.062;9.962;2022-10-16T07:32:30;5.30;;;2.37;;
6306;SDS011;3186;54.062;9.962;2022-10-16T07:34:57;6.40;;;2.70;;
6306;SDS011;3186;54.062;9.962;2022-10-16T07:37:23;4.10;;;2.70;;
6306;SDS011;3186;54.062;9.962;2022-10-16T07:39:49;7.33;;;3.17;;
6306;SDS011;3186;54.062;9.962;2022-10-16T07:42:15;4.73;;;2.90;;
6306;SDS011;3186;54.062;9.962;2022-10-16T07:44:40;5.60;;;3.30;;
6306;SDS011;3186;54.062;9.962;2022-10-16T07:47:06;9.03;;;3.20;;
6306;SDS011;3186;54.062;9.962;2022-10-16T07:49:33;6.40;;;2.80;;
6306;SDS011;3186;54.062;9.962;2022-10-16T07:51:59;5.97;;;3.20;;
6306;SDS011;3186;54.062;9.962;2022-10-16T07:54:24;4.53;;;2.87;;
6306;SDS011;3186;54.062;9.962;2022-10-16T07:56:50;5.97;;;3.30;;
6306;SDS011;3186;54.062;9.962;2022-10-16T07:59:16;7.33;;;3.23;;
6306;SDS011;3186;54.062;9.962;2022-10-16T08:01:42;7.97;;;4.00;;
6306;SDS011;3186;54.062;9.962;2022-10-16T08:04:08;7.57;;;4.40;;
6306;SDS011;3186;54.062;9.962;2022-10-16T08:06:35;12.33;;;4.17;;
6306;SDS011;3186;54.062;9.962;2022-10-16T08:09:02;6.50;;;4.13;;
6306;SDS011;3186;54.062;9.962;2022-10-16T08:11:29;7.70;;;4.20;;
6306;SDS011;3186;54.062;9.962;2022-10-16T08:13:55;12.67;;;6.70;;
6306;SDS011;3186;54.062;9.962;2022-10-16T08:16:20;6.73;;;4.93;;
6306;SDS011;3186;54.062;9.962;2022-10-16T08:18:46;8.53;;;4.60;;
6306;SDS011;3186;54.062;9.962;2022-10-16T08:21:16;6.87;;;4.17;;
6306;SDS011;3186;54.062;9.962;2022-10-16T08:23:43;6.13;;;3.70;;
6306;SDS011;3186;54.062;9.962;2022-10-16T08:26:09;9.00;;;4.93;;
6306;SDS011;3186;54.062;9.962;2022-10-16T08:28:36;9.20;;;4.47;;
6306;SDS011;3186;54.062;9.962;2022-10-16T08:31:09;8.53;;;4.13;;
6306;SDS011;3186;54.062;9.962;2022-10-16T08:33:37;8.70;;;4.50;;
6306;SDS011;3186;54.062;9.962;2022-10-16T08:36:04;7.17;;;4.50;;
6306;SDS011;3186;54.062;9.962;2022-10-16T08:38:31;7.67;;;4.87;;
6306;SDS011;3186;54.062;9.962;2022-10-16T08:41:04;7.10;;;4.57;;
6306;SDS011;3186;54.062;9.962;2022-10-16T08:46:45;9.17;;;4.57;;
6306;SDS011;3186;54.062;9.962;2022-10-16T08:49:25;7.80;;;4.17;;
6306;SDS011;3186;54.062;9.962;2022-10-16T08:51:52;9.90;;;5.10;;
6306;SDS011;3186;54.062;9.962;2022-10-16T08:54:29;9.80;;;4.80;;
6306;SDS011;3186;54.062;9.962;2022-10-16T08:57:11;8.80;;;4.60;;
6306;SDS011;3186;54.062;9.962;2022-10-16T08:59:39;9.03;;;4.40;;
6306;SDS011;3186;54.062;9.962;2022-10-16T09:16:48;9.60;;;4.83;;
6306;SDS011;3186;54.062;9.962;2022-10-16T09:19:28;7.47;;;4.90;;
6306;SDS011;3186;54.062;9.962;2022-10-16T09:22:01;12.10;;;4.50;;
6306;SDS011;3186;54.062;9.962;2022-10-16T09:24:35;9.10;;;4.03;;
6306;SDS011;3186;54.062;9.962;2022-10-16T09:27:02;8.00;;;5.00;;
6306;SDS011;3186;54.062;9.962;2022-10-16T09:29:28;6.93;;;4.07;;
6306;SDS011;3186;54.062;9.962;2022-10-16T09:31:53;9.67;;;4.50;;
6306;SDS011;3186;54.062;9.962;2022-10-16T09:34:36;6.43;;;4.37;;
6306;SDS011;3186;54.062;9.962;2022-10-16T09:37:05;9.00;;;4.50;;
6306;SDS011;3186;54.062;9.962;2022-10-16T09:39:53;7.93;;;4.43;;
6306;SDS011;3186;54.062;9.962;2022-10-16T09:42:32;7.33;;;4.13;;
6306;SDS011;3186;54.062;9.962;2022-10-16T09:45:02;6.30;;;4.17;;
6306;SDS011;3186;54.062;9.962;2022-10-16T09:47:30;6.87;;;4.27;;
6306;SDS011;3186;54.062;9.962;2022-10-16T09:50:00;8.07;;;4.30;;
6306;SDS011;3186;54.062;9.962;2022-10-16T09:52:44;8.70;;;4.87;;
6306;SDS011;3186;54.062;9.962;2022-10-16T09:55:14;10.87;;;5.03;;
6306;SDS011;3186;54.062;9.962;2022-10-16T09:57:48;8.10;;;4.70;;
6306;SDS011;3186;54.062;9.962;2022-10-16T10:00:16;7.33;;;4.50;;
6306;SDS011;3186;54.062;9.962;2022-10-16T10:02:43;6.13;;;4.10;;
6306;SDS011;3186;54.062;9.962;2022-10-16T10:08:00;8.20;;;4.60;;
6306;SDS011;3186;54.062;9.962;2022-10-16T10:10:41;9.80;;;4.37;;
6306;SDS011;3186;54.062;9.962;2022-10-16T10:13:21;7.00;;;3.97;;
6306;SDS011;3186;54.062;9.962;2022-10-16T10:15:49;9.00;;;3.90;;
6306;SDS011;3186;54.062;9.962;2022-10-16T10:18:19;10.13;;;4.13;;
6306;SDS011;3186;54.062;9.962;2022-10-16T10:21:01;6.90;;;3.30;;
6306;SDS011;3186;54.062;9.962;2022-10-16T10:23:28;8.33;;;3.23;;
6306;SDS011;3186;54.062;9.962;2022-10-16T10:31:29;14.83;;;4.03;;
6306;SDS011;3186;54.062;9.962;2022-10-16T10:37:17;11.23;;;3.10;;
6306;SDS011;3186;54.062;9.962;2022-10-16T10:39:53;7.07;;;3.60;;
6306;SDS011;3186;54.062;9.962;2022-10-16T10:45:38;8.03;;;2.83;;
6306;SDS011;3186;54.062;9.962;2022-10-16T10:48:19;5.33;;;2.90;;
6306;SDS011;3186;54.062;9.962;2022-10-16T10:51:08;5.30;;;2.73;;
6306;SDS011;3186;54.062;9.962;2022-10-16T10:59:06;7.77;;;2.53;;
6306;SDS011;3186;54.062;9.962;2022-10-16T11:07:24;5.80;;;1.90;;
6306;SDS011;3186;54.062;9.962;2022-10-16T11:10:24;5.30;;;2.43;;
6306;SDS011;3186;54.062;9.962;2022-10-16T11:12:48;5.80;;;2.07;;
6306;SDS011;3186;54.062;9.962;2022-10-16T11:15:27;4.53;;;1.80;;
6306;SDS011;3186;54.062;9.962;2022-10-16T11:18:03;6.40;;;1.93;;
6306;SDS011;3186;54.062;9.962;2022-10-16T11:20:44;3.77;;;1.83;;
6306;SDS011;3186;54.062;9.962;2022-10-16T11:23:25;4.80;;;1.90;;
6306;SDS011;3186;54.062;9.962;2022-10-16T11:26:02;5.40;;;1.63;;
6306;SDS011;3186;54.062;9.962;2022-10-16T11:28:34;4.10;;;1.60;;
6306;SDS011;3186;54.062;9.962;2022-10-16T11:31:12;6.90;;;1.80;;
6306;SDS011;3186;54.062;9.962;2022-10-16T11:33:40;6.93;;;2.10;;
6306;SDS011;3186;54.062;9.962;2022-10-16T11:41:35;5.03;;;1.40;;
6306;SDS011;3186;54.062;9.962;2022-10-16T11:49:57;4.17;;;1.60;;
6306;SDS011;3186;54.062;9.962;2022-10-16T11:52:44;4.63;;;1.40;;
6306;SDS011;3186;54.062;9.962;2022-10-16T11:55:27;7.13;;;1.43;;
6306;SDS011;3186;54.062;9.962;2022-10-16T12:08:54;3.87;;;1.80;;
6306;SDS011;3186;54.062;9.962;2022-10-16T12:16:59;4.07;;;1.77;;
6306;SDS011;3186;54.062;9.962;2022-10-16T12:19:26;6.70;;;1.90;;
6306;SDS011;3186;54.062;9.962;2022-10-16T12:21:57;5.93;;;1.60;;
6306;SDS011;3186;54.062;9.962;2022-10-16T12:27:20;6.77;;;1.77;;
6306;SDS011;3186;54.062;9.962;2022-10-16T12:29:57;6.40;;;1.40;;
6306;SDS011;3186;54.062;9.962;2022-10-16T12:35:02;7.40;;;1.67;;
6306;SDS011;3186;54.062;9.962;2022-10-16T12:37:33;3.97;;;1.37;;
6306;SDS011;3186;54.062;9.962;2022-10-16T12:40:13;10.30;;;1.70;;
6306;SDS011;3186;54.062;9.962;2022-10-16T12:42:54;5.43;;;1.57;;
6306;SDS011;3186;54.062;9.962;2022-10-16T12:45:33;5.23;;;1.87;;
6306;SDS011;3186;54.062;9.962;2022-10-16T12:48:00;7.00;;;1.47;;
6306;SDS011;3186;54.062;9.962;2022-10-16T12:50:35;8.67;;;1.40;;
6306;SDS011;3186;54.062;9.962;2022-10-16T12:53:16;6.23;;;1.77;;
6306;SDS011;3186;54.062;9.962;2022-10-16T13:09:31;9.17;;;2.20;;
6306;SDS011;3186;54.062;9.962;2022-10-16T13:28:31;3.77;;;1.63;;
6306;SDS011;3186;54.062;9.962;2022-10-16T13:30:59;6.43;;;1.83;;
6306;SDS011;3186;54.062;9.962;2022-10-16T13:33:40;6.77;;;1.50;;
6306;SDS011;3186;54.062;9.962;2022-10-16T13:36:20;8.87;;;1.83;;
6306;SDS011;3186;54.062;9.962;2022-10-16T13:38:47;6.77;;;1.80;;
6306;SDS011;3186;54.062;9.962;2022-10-16T13:41:15;6.17;;;1.40;;
6306;SDS011;3186;54.062;9.962;2022-10-16T13:43:43;7.60;;;1.60;;
6306;SDS011;3186;54.062;9.962;2022-10-16T13:46:18;10.17;;;1.73;;
6306;SDS011;3186;54.062;9.962;2022-10-16T13:49:05;5.40;;;1.50;;
6306;SDS011;3186;54.062;9.962;2022-10-16T13:51:37;8.73;;;1.83;;
6306;SDS011;3186;54.062;9.962;2022-10-16T13:54:02;5.93;;;1.60;;
6306;SDS011;3186;54.062;9.962;2022-10-16T13:56:29;5.43;;;1.90;;
6306;SDS011;3186;54.062;9.962;2022-10-16T13:59:01;6.37;;;1.70;;
6306;SDS011;3186;54.062;9.962;2022-10-16T14:01:29;4.90;;;1.37;;
6306;SDS011;3186;54.062;9.962;2022-10-16T14:04:00;3.97;;;1.53;;
6306;SDS011;3186;54.062;9.962;2022-10-16T14:06:30;5.27;;;1.63;;
6306;SDS011;3186;54.062;9.962;2022-10-16T14:11:32;8.50;;;1.50;;
6306;SDS011;3186;54.062;9.962;2022-10-16T14:14:04;6.97;;;1.60;;
6306;SDS011;3186;54.062;9.962;2022-10-16T14:16:30;6.00;;;1.90;;
6306;SDS011;3186;54.062;9.962;2022-10-16T14:18:58;7.50;;;1.67;;
6306;SDS011;3186;54.062;9.962;2022-10-16T14:21:27;7.10;;;1.97;;
6306;SDS011;3186;54.062;9.962;2022-10-16T14:23:53;6.13;;;1.57;;
6306;SDS011;3186;54.062;9.962;2022-10-16T14:26:22;6.10;;;1.70;;
6306;SDS011;3186;54.062;9.962;2022-10-16T14:29:02;12.73;;;1.93;;
6306;SDS011;3186;54.062;9.962;2022-10-16T14:31:40;4.17;;;1.50;;
6306;SDS011;3186;54.062;9.962;2022-10-16T14:34:23;7.30;;;2.10;;
6306;SDS011;3186;54.062;9.962;2022-10-16T14:37:08;5.20;;;2.03;;
6306;SDS011;3186;54.062;9.962;2022-10-16T14:39:39;7.73;;;1.90;;
6306;SDS011;3186;54.062;9.962;2022-10-16T14:42:11;6.83;;;1.60;;
6306;SDS011;3186;54.062;9.962;2022-10-16T14:44:40;4.40;;;1.40;;
6306;SDS011;3186;54.062;9.962;2022-10-16T14:47:06;6.07;;;1.67;;
6306;SDS011;3186;54.062;9.962;2022-10-16T14:49:40;7.17;;;2.00;;
6306;SDS011;3186;54.062;9.962;2022-10-16T14:52:10;6.73;;;1.87;;
6306;SDS011;3186;54.062;9.962;2022-10-16T14:54:37;6.47;;;1.90;;
6306;SDS011;3186;54.062;9.962;2022-10-16T14:57:03;4.57;;;1.40;;
6306;SDS011;3186;54.062;9.962;2022-10-16T14:59:30;9.23;;;1.67;;
6306;SDS011;3186;54.062;9.962;2022-10-16T15:02:25;9.77;;;2.10;;
6306;SDS011;3186;54.062;9.962;2022-10-16T15:04:53;6.20;;;1.77;;
6306;SDS011;3186;54.062;9.962;2022-10-16T15:07:20;4.33;;;1.70;;
6306;SDS011;3186;54.062;9.962;2022-10-16T15:09:49;7.47;;;1.50;;
6306;SDS011;3186;54.062;9.962;2022-10-16T15:12:16;2.83;;;1.30;;
6306;SDS011;3186;54.062;9.962;2022-10-16T15:14:42;4.70;;;1.50;;
6306;SDS011;3186;54.062;9.962;2022-10-16T15:17:11;4.70;;;1.63;;
6306;SDS011;3186;54.062;9.962;2022-10-16T15:19:37;5.90;;;1.97;;
6306;SDS011;3186;54.062;9.962;2022-10-16T15:22:03;8.20;;;2.03;;
6306;SDS011;3186;54.062;9.962;2022-10-16T15:24:29;7.23;;;1.77;;
6306;SDS011;3186;54.062;9.962;2022-10-16T15:26:55;5.23;;;1.57;;
6306;SDS011;3186;54.062;9.962;2022-10-16T15:29:20;5.00;;;1.67;;
6306;SDS011;3186;54.062;9.962;2022-10-16T15:31:46;7.77;;;2.40;;
6306;SDS011;3186;54.062;9.962;2022-10-16T15:34:12;6.87;;;1.90;;
6306;SDS011;3186;54.062;9.962;2022-10-16T15:36:39;4.83;;;1.40;;
6306;SDS011;3186;54.062;9.962;2022-10-16T15:39:19;4.73;;;1.70;;
6306;SDS011;3186;54.062;9.962;2022-10-16T15:41:45;8.03;;;2.60;;
6306;SDS011;3186;54.062;9.962;2022-10-16T15:44:16;6.30;;;2.00;;
6306;SDS011;3186;54.062;9.962;2022-10-16T15:46:42;7.37;;;2.27;;
6306;SDS011;3186;54.062;9.962;2022-10-16T15:49:09;3.53;;;1.57;;
6306;SDS011;3186;54.062;9.962;2022-10-16T15:51:39;4.90;;;1.67;;
6306;SDS011;3186;54.062;9.962;2022-10-16T15:54:06;4.40;;;1.90;;
6306;SDS011;3186;54.062;9.962;2022-10-16T15:56:32;6.53;;;2.37;;
6306;SDS011;3186;54.062;9.962;2022-10-16T15:58:59;9.43;;;2.03;;
6306;SDS011;3186;54.062;9.962;2022-10-16T16:01:26;5.33;;;2.00;;
6306;SDS011;3186;54.062;9.962;2022-10-16T16:03:52;6.50;;;2.33;;
6306;SDS011;3186;54.062;9.962;2022-10-16T16:06:18;6.27;;;1.77;;
6306;SDS011;3186;54.062;9.962;2022-10-16T16:08:44;7.03;;;2.00;;
6306;SDS011;3186;54.062;9.962;2022-10-16T16:11:11;5.50;;;2.00;;
6306;SDS011;3186;54.062;9.962;2022-10-16T16:13:39;5.37;;;1.77;;
6306;SDS011;3186;54.062;9.962;2022-10-16T16:16:06;5.27;;;2.07;;
6306;SDS011;3186;54.062;9.962;2022-10-16T16:18:33;5.83;;;2.07;;
6306;SDS011;3186;54.062;9.962;2022-10-16T16:20:59;6.77;;;2.33;;
6306;SDS011;3186;54.062;9.962;2022-10-16T16:23:25;8.67;;;2.30;;
6306;SDS011;3186;54.062;9.962;2022-10-16T16:26:09;8.43;;;2.80;;
6306;SDS011;3186;54.062;9.962;2022-10-16T16:28:38;7.47;;;2.03;;
6306;SDS011;3186;54.062;9.962;2022-10-16T16:31:05;10.10;;;2.77;;
6306;SDS011;3186;54.062;9.962;2022-10-16T16:33:31;17.00;;;3.90;;
6306;SDS011;3186;54.062;9.962;2022-10-16T16:36:02;14.00;;;3.77;;
6306;SDS011;3186;54.062;9.962;2022-10-16T16:38:31;13.13;;;3.57;;
6306;SDS011;3186;54.062;9.962;2022-10-16T16:40:58;10.00;;;3.37;;
6306;SDS011;3186;54.062;9.962;2022-10-16T16:43:24;12.27;;;3.67;;
6306;SDS011;3186;54.062;9.962;2022-10-16T16:45:51;14.07;;;3.07;;
6306;SDS011;3186;54.062;9.962;2022-10-16T16:48:18;9.87;;;3.20;;
6306;SDS011;3186;54.062;9.962;2022-10-16T16:50:44;9.07;;;3.13;;
6306;SDS011;3186;54.062;9.962;2022-10-16T16:53:10;9.33;;;3.43;;
6306;SDS011;3186;54.062;9.962;2022-10-16T16:55:35;12.57;;;4.07;;
6306;SDS011;3186;54.062;9.962;2022-10-16T16:58:01;14.77;;;3.43;;
6306;SDS011;3186;54.062;9.962;2022-10-16T17:00:28;13.90;;;3.33;;
6306;SDS011;3186;54.062;9.962;2022-10-16T17:02:56;10.40;;;3.33;;
6306;SDS011;3186;54.062;9.962;2022-10-16T17:05:22;10.50;;;3.30;;
6306;SDS011;3186;54.062;9.962;2022-10-16T17:07:48;11.07;;;3.43;;
6306;SDS011;3186;54.062;9.962;2022-10-16T17:10:14;8.03;;;3.20;;
6306;SDS011;3186;54.062;9.962;2022-10-16T17:12:40;18.00;;;4.63;;
6306;SDS011;3186;54.062;9.962;2022-10-16T17:15:06;12.90;;;3.57;;
6306;SDS011;3186;54.062;9.962;2022-10-16T17:17:32;17.00;;;3.83;;
6306;SDS011;3186;54.062;9.962;2022-10-16T17:19:58;9.13;;;3.63;;
6306;SDS011;3186;54.062;9.962;2022-10-16T17:22:24;12.80;;;3.70;;
6306;SDS011;3186;54.062;9.962;2022-10-16T17:24:50;11.17;;;3.17;;
6306;SDS011;3186;54.062;9.962;2022-10-16T17:27:17;14.00;;;3.43;;
6306;SDS011;3186;54.062;9.962;2022-10-16T17:29:43;11.50;;;3.97;;
6306;SDS011;3186;54.062;9.962;2022-10-16T17:32:09;17.47;;;3.80;;
6306;SDS011;3186;54.062;9.962;2022-10-16T17:34:35;13.37;;;3.97;;
6306;SDS011;3186;54.062;9.962;2022-10-16T17:37:01;15.47;;;3.10;;